Time;durP1;ratioP1;P1;durP2;ratioP2;P2;SDS_P1;SDS_P2;PMS_P1;PMS_P2;Temp;Humidity;BMP_temperature;BMP_pressure;BME280_temperature;BME280_humidity;BME280_pressure;Samples;Min_cycle;Max_cycle;Signal;HPM_P1;HPM_P2
2022/09/10 00:01:23;;;;;;;7.93;7.13;;;;;;;14.57;100.00;100923.91;5054221;28;20493;-82
2022/09/10 00:03:50;;;;;;;15.70;7.45;;;;;;;14.59;100.00;100920.75;5052463;28;20050;-82
2022/09/10 00:06:17;;;;;;;10.05;6.97;;;;;;;14.60;100.00;100931.00;5054508;28;20060;-82
2022/09/10 00:08:45;;;;;;;7.50;6.63;;;;;;;14.61;100.00;100929.06;5053130;28;20045;-82
2022/09/10 00:11:13;;;;;;;7.90;6.63;;;;;;;14.61;100.00;100924.44;5052843;28;20052;-83
2022/09/10 00:13:41;;;;;;;12.93;6.35;;;;;;;14.61;100.00;100921.03;5053624;28;20093;-82
2022/09/10 00:16:11;;;;;;;12.43;6.50;;;;;;;14.61;100.00;100931.75;5054336;28;20565;-82
2022/09/10 00:18:39;;;;;;;7.03;6.32;;;;;;;14.62;100.00;100917.16;5053636;28;20049;-82
2022/09/10 00:21:12;;;;;;;11.40;6.32;;;;;;;14.62;100.00;100914.47;5054041;28;20148;-83
2022/09/10 00:23:38;;;;;;;7.10;6.40;;;;;;;14.63;100.00;100918.63;5053291;28;20486;-83
2022/09/10 00:26:24;;;;;;;14.48;6.68;;;;;;;14.63;100.00;100915.94;5054109;28;20045;-82
2022/09/10 00:28:53;;;;;;;12.55;6.30;;;;;;;14.64;100.00;100917.44;5052347;28;20148;-82
2022/09/10 00:31:21;;;;;;;11.55;6.60;;;;;;;14.65;100.00;100924.25;5052572;28;20132;-82
2022/09/10 00:33:49;;;;;;;9.95;6.22;;;;;;;14.65;100.00;100922.31;5052201;28;20059;-82
2022/09/10 00:36:18;;;;;;;9.90;6.18;;;;;;;14.67;100.00;100919.19;5054232;28;20117;-81
2022/09/10 00:38:45;;;;;;;11.70;6.10;;;;;;;14.66;100.00;100928.44;5051525;28;20053;-81
2022/09/10 00:41:13;;;;;;;13.68;6.82;;;;;;;14.65;100.00;100925.00;5053777;28;20041;-80
2022/09/10 00:44:01;;;;;;;10.95;6.15;;;;;;;14.65;100.00;100926.94;5052970;28;20037;-79
2022/09/10 00:46:49;;;;;;;10.68;6.07;;;;;;;14.66;100.00;100925.75;5053587;28;20065;-79
2022/09/10 00:49:27;;;;;;;10.82;5.93;;;;;;;14.64;100.00;100928.88;5052525;28;20422;-78
2022/09/10 00:51:54;;;;;;;9.40;6.25;;;;;;;14.63;100.00;100922.03;5053582;28;20133;-78
2022/09/10 00:54:24;;;;;;;12.57;6.07;;;;;;;14.63;100.00;100932.03;5053143;28;20053;-78
2022/09/10 00:56:53;;;;;;;12.85;6.50;;;;;;;14.62;100.00;100923.25;5053439;28;20124;-78
2022/09/10 00:59:25;;;;;;;11.60;6.35;;;;;;;14.63;100.00;100927.41;5053574;28;20049;-78
2022/09/10 01:01:52;;;;;;;12.80;6.53;;;;;;;14.64;100.00;100925.47;5051852;28;20050;-77
2022/09/10 01:04:19;;;;;;;14.48;7.50;;;;;;;14.64;100.00;100928.16;5053298;28;20045;-77
2022/09/10 01:06:50;;;;;;;11.55;6.80;;;;;;;14.60;100.00;100925.66;5051324;28;20045;-78
2022/09/10 01:09:19;;;;;;;19.08;7.20;;;;;;;14.60;100.00;100932.94;5053632;28;20047;-77
2022/09/10 01:12:07;;;;;;;12.38;7.65;;;;;;;14.60;100.00;100927.59;5051659;28;20103;-78
2022/09/10 01:14:46;;;;;;;10.85;7.22;;;;;;;14.58;100.00;100925.38;5051375;28;20053;-78
2022/09/10 01:17:48;;;;;;;9.70;7.28;;;;;;;14.58;100.00;100925.38;5053401;28;20061;-78
2022/09/10 01:20:17;;;;;;;;;;;;;;;14.58;100.00;100925.38;4991258;28;20588;-79
2022/09/10 01:23:22;;;;;;;13.27;7.28;;;;;;;14.56;100.00;100922.41;4974404;28;19936;-78
2022/09/10 01:26:23;;;;;;;10.43;7.78;;;;;;;14.55;100.00;100920.19;4974692;28;20050;-78
2022/09/10 01:29:01;;;;;;;10.43;8.07;;;;;;;14.52;100.00;100921.84;4990904;28;20051;-82
2022/09/10 01:31:45;;;;;;;13.98;8.95;;;;;;;14.52;100.00;100918.44;4990968;28;20500;-80
2022/09/10 01:34:20;;;;;;;;;;;;;;;14.51;100.00;100916.97;4975353;28;20055;-79
2022/09/10 01:36:52;;;;;;;13.73;8.05;;;;;;;14.50;100.00;100924.25;4990654;28;19925;-80
2022/09/10 01:39:22;;;;;;;13.88;8.88;;;;;;;14.50;100.00;100923.53;4991268;28;20050;-80
2022/09/10 01:41:53;;;;;;;12.10;9.00;;;;;;;14.49;100.00;100925.47;4974325;28;20131;-80
2022/09/10 01:44:48;;;;;;;12.40;9.40;;;;;;;14.47;100.00;100935.16;4990685;28;20075;-80
2022/09/10 01:47:53;;;;;;;14.93;9.38;;;;;;;14.47;100.00;100935.16;4990919;28;20154;-80
2022/09/10 01:50:38;;;;;;;13.60;9.07;;;;;;;14.45;100.00;100930.25;4990389;28;20534;-81
2022/09/10 01:53:10;;;;;;;16.20;10.20;;;;;;;14.45;100.00;100932.19;4990405;28;20081;-81
2022/09/10 01:55:40;;;;;;;14.02;10.48;;;;;;;14.45;100.00;100929.50;5014533;28;20092;-80
2022/09/10 01:58:27;;;;;;;18.95;11.00;;;;;;;14.43;100.00;100924.63;5035129;28;20049;-80
2022/09/10 02:01:07;;;;;;;11.85;9.43;;;;;;;14.44;100.00;100928.03;5051014;28;20085;-80
2022/09/10 02:03:36;;;;;;;16.92;11.07;;;;;;;14.43;100.00;100918.53;5052174;28;20092;-79
2022/09/10 02:06:05;;;;;;;16.88;11.48;;;;;;;14.42;100.00;100922.41;5051019;28;20500;-80
2022/09/10 02:08:38;;;;;;;14.73;10.95;;;;;;;14.42;100.00;100915.09;5050849;28;20104;-80
2022/09/10 02:11:10;;;;;;;13.32;11.25;;;;;;;14.44;100.00;100912.72;5051340;28;20096;-80
2022/09/10 02:13:41;;;;;;;14.52;11.65;;;;;;;14.44;100.00;100922.69;5050344;28;20057;-80
2022/09/10 02:16:33;;;;;;;18.63;12.25;;;;;;;14.45;100.00;100914.19;5050878;28;20057;-80
2022/09/10 02:19:01;;;;;;;16.25;11.60;;;;;;;14.45;100.00;100916.13;5051395;28;20576;-79
2022/09/10 02:21:30;;;;;;;16.02;11.85;;;;;;;14.46;100.00;100920.28;5052314;28;20477;-80
2022/09/10 02:24:04;;;;;;;19.25;12.18;;;;;;;14.45;100.00;100914.19;5052073;28;20041;-79
2022/09/10 02:26:32;;;;;;;16.67;13.00;;;;;;;14.45;100.00;100922.22;5050891;28;20077;-79
2022/09/10 02:29:00;;;;;;;15.50;12.38;;;;;;;14.46;100.00;100914.94;5067781;28;20077;-80
2022/09/10 02:31:27;;;;;;;19.77;13.73;;;;;;;14.48;100.00;100917.88;5050884;28;20053;-80
2022/09/10 02:33:53;;;;;;;20.13;13.52;;;;;;;14.48;100.00;100907.16;5050003;28;20455;-80
2022/09/10 02:36:24;;;;;;;14.18;12.73;;;;;;;14.50;100.00;100913.53;5050270;28;20060;-80
2022/09/10 02:38:52;;;;;;;16.27;14.02;;;;;;;14.52;100.00;100915.75;5050679;28;20208;-80
2022/09/10 02:41:22;;;;;;;18.85;13.20;;;;;;;14.51;100.00;100908.94;5051193;28;20128;-80
2022/09/10 02:43:49;;;;;;;22.27;14.18;;;;;;;14.53;100.00;100911.88;5050469;28;20065;-80
2022/09/10 02:46:16;;;;;;;16.95;14.25;;;;;;;14.54;100.00;100918.72;5050871;28;20498;-80
2022/09/10 02:48:42;;;;;;;17.65;14.30;;;;;;;14.55;100.00;100918.25;5049842;28;20052;-80
2022/09/10 02:51:09;;;;;;;17.85;14.43;;;;;;;14.55;100.00;100920.19;5067344;28;20052;-80
2022/09/10 02:53:37;;;;;;;17.05;14.88;;;;;;;14.56;100.00;100917.06;5050101;28;20049;-80
2022/09/10 02:56:06;;;;;;;18.45;15.27;;;;;;;14.57;100.00;100917.78;5050685;28;20502;-80
2022/09/10 02:58:35;;;;;;;22.25;14.70;;;;;;;14.56;100.00;100922.41;5050160;28;20129;-80
2022/09/10 03:01:09;;;;;;;18.27;14.45;;;;;;;14.58;100.00;100911.25;5050550;28;20053;-80
2022/09/10 03:03:38;;;;;;;18.10;14.93;;;;;;;14.58;100.00;100911.97;5048973;28;20066;-80
2022/09/10 03:06:04;;;;;;;18.83;14.77;;;;;;;14.61;100.00;100907.63;5053775;28;20041;-80
2022/09/10 03:08:31;;;;;;;18.60;15.63;;;;;;;14.61;100.00;100913.72;5053888;28;20053;-80
2022/09/10 03:10:58;;;;;;;19.75;15.40;;;;;;;14.63;100.00;100913.28;5055129;28;20042;-80
2022/09/10 03:13:29;;;;;;;21.45;16.20;;;;;;;14.64;100.00;100910.13;5055168;28;20088;-80
2022/09/10 03:15:57;;;;;;;25.60;16.27;;;;;;;14.65;100.00;100908.94;5037066;28;20064;-80
2022/09/10 03:18:26;;;;;;;20.33;15.40;;;;;;;14.65;100.00;100908.19;5052997;28;20144;-80
2022/09/10 03:20:53;;;;;;;21.25;15.50;;;;;;;14.67;100.00;100908.47;5070131;28;20050;-81
2022/09/10 03:23:19;;;;;;;17.95;15.77;;;;;;;14.66;100.00;100905.06;5055150;28;20072;-81
2022/09/10 03:25:45;;;;;;;20.48;15.98;;;;;;;14.67;100.00;100901.16;5070180;28;20049;-81
2022/09/10 03:28:17;;;;;;;24.50;16.95;;;;;;;14.68;100.00;100904.59;5053684;28;20057;-81
2022/09/10 03:30:43;;;;;;;20.35;16.38;;;;;;;14.69;100.00;100900.72;5069509;28;20073;-81
2022/09/10 03:33:10;;;;;;;20.00;15.85;;;;;;;14.70;100.00;100901.44;5052777;28;20042;-81
2022/09/10 03:35:39;;;;;;;19.58;16.27;;;;;;;14.68;100.00;100905.31;5052656;28;20053;-81
2022/09/10 03:38:06;;;;;;;23.08;16.40;;;;;;;14.71;100.00;100900.25;5055016;28;20049;-81
2022/09/10 03:40:33;;;;;;;20.45;16.27;;;;;;;14.71;100.00;100900.97;5053431;28;20132;-81
2022/09/10 03:43:00;;;;;;;23.27;16.10;;;;;;;14.73;100.00;100900.53;5054621;28;20046;-81
2022/09/10 03:45:27;;;;;;;21.20;16.67;;;;;;;14.73;100.00;100895.91;5053025;28;20084;-81
2022/09/10 03:47:54;;;;;;;22.20;16.77;;;;;;;14.73;100.00;100887.88;5052497;28;20051;-81
2022/09/10 03:50:21;;;;;;;20.63;16.17;;;;;;;14.73;100.00;100887.88;5052924;28;20057;-81
2022/09/10 03:52:49;;;;;;;19.75;16.17;;;;;;;14.72;100.00;100889.06;5052687;28;20069;-81
2022/09/10 03:55:16;;;;;;;18.95;16.63;;;;;;;14.72;100.00;100896.38;5052815;28;20112;-82
2022/09/10 03:57:44;;;;;;;18.38;16.48;;;;;;;14.73;100.00;100892.47;5035744;28;20053;-80
2022/09/10 04:00:13;;;;;;;18.65;16.00;;;;;;;14.74;100.00;100894.69;5054340;28;20041;-80
2022/09/10 04:02:45;;;;;;;20.23;16.33;;;;;;;14.75;100.00;100892.75;5051356;28;21235;-80
2022/09/10 04:05:12;;;;;;;19.77;16.30;;;;;;;14.75;100.00;100885.47;5069855;28;20057;-81
2022/09/10 04:07:39;;;;;;;17.73;15.90;;;;;;;14.77;100.00;100895.72;5052132;28;20532;-80
2022/09/10 04:10:05;;;;;;;22.02;15.85;;;;;;;14.77;100.00;100893.03;5052835;28;20058;-80
2022/09/10 04:12:32;;;;;;;21.10;16.67;;;;;;;14.78;100.00;100894.50;5052439;28;20153;-81
2022/09/10 04:15:02;;;;;;;17.77;15.65;;;;;;;14.80;100.00;100897.44;5054138;28;20449;-80
2022/09/10 04:17:29;;;;;;;26.45;15.98;;;;;;;14.81;100.00;100896.25;5052228;28;20486;-78
2022/09/10 04:19:55;;;;;;;19.85;15.90;;;;;;;14.81;100.00;100888.19;5053767;28;20041;-77
2022/09/10 04:22:23;;;;;;;22.33;16.73;;;;;;;14.80;100.00;100886.72;5052425;28;20571;-78
2022/09/10 04:24:50;;;;;;;23.42;16.23;;;;;;;14.78;100.00;100883.78;5053435;28;20068;-78
2022/09/10 04:27:16;;;;;;;18.88;15.93;;;;;;;14.77;100.00;100885.00;5054145;28;20586;-78
2022/09/10 04:29:43;;;;;;;18.25;16.40;;;;;;;14.78;100.00;100883.78;5051447;28;20387;-78
2022/09/10 04:32:09;;;;;;;19.05;16.15;;;;;;;14.76;100.00;100883.53;5053540;28;20098;-78
2022/09/10 04:34:36;;;;;;;18.73;15.48;;;;;;;14.75;100.00;100888.13;5051915;28;20514;-78
2022/09/10 04:37:02;;;;;;;18.30;15.88;;;;;;;14.75;100.00;100890.81;5053844;28;20124;-79
2022/09/10 04:39:32;;;;;;;20.00;16.13;;;;;;;14.75;100.00;100884.72;5051852;28;20062;-79
2022/09/10 04:41:58;;;;;;;17.08;15.10;;;;;;;14.74;100.00;100886.66;5069148;28;20056;-80
2022/09/10 04:44:26;;;;;;;16.92;15.15;;;;;;;14.76;100.00;100886.19;5051700;28;20053;-80
2022/09/10 04:46:53;;;;;;;20.92;15.60;;;;;;;14.77;100.00;100895.72;5051945;28;20060;-80
2022/09/10 04:49:19;;;;;;;19.70;14.85;;;;;;;14.77;100.00;100893.78;5052192;28;20076;-81
2022/09/10 04:51:46;;;;;;;20.58;15.30;;;;;;;14.78;100.00;100891.84;5068682;28;20510;-80
2022/09/10 04:54:14;;;;;;;19.05;14.30;;;;;;;14.77;100.00;100896.44;5068900;28;20053;-81
2022/09/10 04:56:42;;;;;;;20.23;15.70;;;;;;;14.79;100.00;100896.00;5051587;28;20042;-81
2022/09/10 04:59:09;;;;;;;19.85;15.68;;;;;;;14.78;100.00;100897.94;5053203;28;20049;-81
2022/09/10 05:01:36;;;;;;;16.13;14.52;;;;;;;14.80;100.00;100897.44;5051585;28;20104;-81
2022/09/10 05:04:03;;;;;;;16.60;14.60;;;;;;;14.80;100.00;100900.13;5051263;28;20085;-81
2022/09/10 05:06:29;;;;;;;18.17;15.52;;;;;;;14.79;100.00;100904.03;5051428;28;20382;-81
2022/09/10 05:08:56;;;;;;;17.30;15.48;;;;;;;14.80;100.00;100905.47;5035287;28;20041;-81
2022/09/10 05:11:24;;;;;;;18.13;15.73;;;;;;;14.81;100.00;100898.91;5051554;28;20049;-81
2022/09/10 05:13:52;;;;;;;16.58;14.75;;;;;;;14.82;100.00;100906.50;5051214;28;20054;-81
2022/09/10 05:16:21;;;;;;;17.88;15.80;;;;;;;14.83;100.00;100910.66;5035480;28;21040;-81
2022/09/10 05:18:48;;;;;;;18.45;15.57;;;;;;;14.82;100.00;100909.19;5051398;28;20049;-81
2022/09/10 05:21:17;;;;;;;16.88;15.05;;;;;;;14.85;100.00;100904.81;5051314;28;20065;-81
2022/09/10 05:23:44;;;;;;;23.17;15.77;;;;;;;14.84;100.00;100901.41;5067640;28;20042;-81
2022/09/10 05:26:10;;;;;;;18.90;15.10;;;;;;;14.85;100.00;100900.22;5052877;28;20041;-81
2022/09/10 05:28:37;;;;;;;17.05;15.30;;;;;;;14.86;100.00;100900.94;5049580;28;20054;-81
2022/09/10 05:31:07;;;;;;;16.30;14.55;;;;;;;14.87;100.00;100903.16;5051669;28;20049;-81
2022/09/10 05:33:35;;;;;;;17.67;15.55;;;;;;;14.87;100.00;100899.75;5067336;28;20049;-81
2022/09/10 05:36:02;;;;;;;19.35;15.32;;;;;;;14.87;100.00;100899.75;5051502;28;20104;-80
2022/09/10 05:38:29;;;;;;;16.67;15.02;;;;;;;14.86;100.00;100907.03;5034714;28;20104;-81
2022/09/10 05:40:57;;;;;;;19.20;15.38;;;;;;;14.89;100.00;100905.38;5051156;28;20046;-81
2022/09/10 05:43:26;;;;;;;17.55;15.80;;;;;;;14.91;100.00;100902.97;5050590;28;20073;-80
2022/09/10 05:45:54;;;;;;;18.33;15.90;;;;;;;14.93;100.00;100903.25;5051061;28;20059;-80
2022/09/10 05:48:20;;;;;;;16.63;14.93;;;;;;;14.96;100.00;100907.69;5052739;28;20041;-80
2022/09/10 05:50:47;;;;;;;15.57;13.98;;;;;;;14.97;100.00;100911.84;5051014;28;20050;-80
2022/09/10 05:53:14;;;;;;;19.02;15.00;;;;;;;14.99;100.00;100906.75;5067866;28;20486;-80
2022/09/10 05:55:42;;;;;;;17.88;15.02;;;;;;;15.00;100.00;100916.28;5050811;28;20140;-80
2022/09/10 05:58:09;;;;;;;17.83;15.20;;;;;;;15.01;100.00;100915.81;5050873;28;20075;-80
2022/09/10 06:00:38;;;;;;;21.15;15.90;;;;;;;15.04;100.00;100916.81;5050373;28;20056;-80
2022/09/10 06:03:05;;;;;;;16.42;14.70;;;;;;;15.08;100.00;100913.94;5050770;28;20061;-81
2022/09/10 06:05:37;;;;;;;16.02;14.45;;;;;;;15.09;100.00;100918.09;5050695;28;20572;-81
2022/09/10 06:08:04;;;;;;;16.15;14.30;;;;;;;15.11;100.00;100921.81;5050835;28;20045;-81
2022/09/10 06:10:37;;;;;;;19.98;14.20;;;;;;;15.12;100.00;100912.56;5050862;28;20144;-82
2022/09/10 06:13:05;;;;;;;15.75;13.85;;;;;;;15.13;100.00;100918.66;5050703;28;20053;-83
2022/09/10 06:15:34;;;;;;;16.13;14.48;;;;;;;15.16;100.00;100926.50;5051141;28;20076;-83
2022/09/10 06:18:01;;;;;;;16.67;14.88;;;;;;;15.17;100.00;100929.94;5068320;28;20042;-82
2022/09/10 06:20:29;;;;;;;16.88;13.70;;;;;;;15.17;100.00;100929.94;5050993;28;20049;-83
2022/09/10 06:22:55;;;;;;;21.48;15.48;;;;;;;15.18;100.00;100932.16;5052889;28;20132;-81
2022/09/10 06:25:23;;;;;;;16.52;14.77;;;;;;;15.19;100.00;100932.88;5051061;28;20465;-81
2022/09/10 06:27:49;;;;;;;19.17;15.88;;;;;;;15.20;100.00;100932.41;5067244;28;20075;-81
2022/09/10 06:30:16;;;;;;;17.42;14.55;;;;;;;15.21;100.00;100936.56;5051254;28;20045;-84
2022/09/10 06:32:45;;;;;;;19.45;14.68;;;;;;;15.23;100.00;100936.09;5051471;28;20092;-79
2022/09/10 06:35:12;;;;;;;15.43;13.82;;;;;;;15.28;100.00;100935.44;5051479;28;20148;-80
2022/09/10 06:37:39;;;;;;;13.70;12.30;;;;;;;15.36;100.00;100936.53;5052389;28;20095;-79
2022/09/10 06:40:08;;;;;;;16.23;14.52;;;;;;;15.42;100.00;100941.97;5069012;28;20045;-79
2022/09/10 06:42:35;;;;;;;19.88;16.77;;;;;;;15.42;100.00;100937.34;5054162;28;20113;-80
2022/09/10 06:45:15;;;;;;;16.08;14.38;;;;;;;15.46;100.00;100940.56;5054634;28;20488;-80
2022/09/10 06:47:49;;;;;;;17.80;15.75;;;;;;;15.47;100.00;100944.72;5071550;28;20561;-79
2022/09/10 06:51:00;;;;;;;17.77;14.63;;;;;;;15.50;100.00;100951.09;5054520;28;20037;-79
2022/09/10 06:53:34;;;;;;;17.77;15.98;;;;;;;15.51;100.00;100955.25;5071005;28;20057;-79
2022/09/10 06:56:04;;;;;;;15.85;13.77;;;;;;;15.58;100.00;100962.94;5054153;28;20077;-79
2022/09/10 06:58:34;;;;;;;19.67;17.08;;;;;;;15.62;100.00;100958.84;5071001;28;20128;-84
2022/09/10 07:01:09;;;;;;;19.05;16.75;;;;;;;15.67;100.00;100960.84;5054482;28;20464;-86
2022/09/10 07:03:41;;;;;;;22.63;16.48;;;;;;;15.71;100.00;100967.97;5053758;28;20053;-87
2022/09/10 07:06:12;;;;;;;19.70;17.52;;;;;;;15.79;100.00;100972.47;5055921;28;20132;-84
2022/09/10 07:08:39;;;;;;;20.43;17.67;;;;;;;15.88;100.00;100972.34;5054009;28;20053;-86
2022/09/10 07:11:13;;;;;;;23.58;16.60;;;;;;;15.97;100.00;100974.16;5071158;28;20049;-80
2022/09/10 07:13:44;;;;;;;18.92;16.08;;;;;;;16.03;100.00;100974.94;5054063;28;20653;-90
2022/09/10 07:16:11;;;;;;;18.30;16.20;;;;;;;16.12;100.00;100963.31;5070984;28;20128;-84
2022/09/10 07:18:37;;;;;;;20.00;17.92;;;;;;;16.14;100.00;100977.75;5070772;28;20132;-86
2022/09/10 07:21:10;;;;;;;22.02;17.70;;;;;;;16.18;100.00;100969.50;5054036;28;20494;-87
2022/09/10 07:23:43;;;;;;;20.48;16.67;;;;;;;16.27;100.00;100974.72;5054702;28;20049;-84
2022/09/10 07:26:12;;;;;;;19.38;16.55;;;;;;;16.38;100.00;100976.81;5069655;28;20052;-85
2022/09/10 07:28:44;;;;;;;20.23;16.75;;;;;;;16.46;100.00;100978.56;5077626;28;20062;-85
2022/09/10 07:31:40;;;;;;;21.67;17.73;;;;;;;16.52;100.00;100982.06;5053716;28;20042;-86
2022/09/10 07:34:11;;;;;;;17.70;15.55;;;;;;;16.57;100.00;100983.31;5053929;28;20080;-81
2022/09/10 07:36:37;;;;;;;17.67;15.88;;;;;;;16.60;100.00;100987.75;5070113;28;20099;-86
2022/09/10 07:39:04;;;;;;;21.20;16.55;;;;;;;16.64;100.00;100991.00;5054595;28;20517;-86
2022/09/10 07:41:34;;;;;;;16.52;14.90;;;;;;;16.76;100.00;100989.88;5053216;28;20041;-88
2022/09/10 07:44:02;;;;;;;17.42;15.52;;;;;;;16.89;100.00;100995.59;5053720;28;20085;-86
2022/09/10 07:46:35;;;;;;;17.35;15.50;;;;;;;17.04;100.00;101003.53;5053066;28;20484;-86
2022/09/10 07:49:02;;;;;;;150.07;27.17;;;;;;;17.18;99.14;100996.56;5053286;28;20465;-85
2022/09/10 07:51:31;;;;;;;27.05;15.60;;;;;;;17.30;98.86;101006.16;5069038;28;20152;-85
2022/09/10 07:53:59;;;;;;;17.75;14.23;;;;;;;17.41;97.83;101000.13;5052868;28;20053;-82
2022/09/10 07:56:33;;;;;;;;;;;;;;;17.58;98.11;101009.03;5053599;28;20053;-84
2022/09/10 07:59:02;;;;;;;17.13;12.68;;;;;;;17.63;96.19;101009.06;5053542;28;19925;-84
2022/09/10 08:01:36;;;;;;;15.18;13.70;;;;;;;17.75;96.15;101011.84;5055497;28;20045;-83
2022/09/10 08:04:06;;;;;;;15.00;13.25;;;;;;;17.65;95.99;101016.69;5080325;28;20577;-84
2022/09/10 08:06:35;;;;;;;16.27;13.13;;;;;;;17.60;95.90;101009.28;5062980;28;20133;-83
2022/09/10 08:09:05;;;;;;;14.95;13.65;;;;;;;17.54;95.15;101019.28;5061209;28;20098;-84
2022/09/10 08:11:33;;;;;;;16.85;13.63;;;;;;;17.53;95.63;101018.56;5076598;28;20050;-83
2022/09/10 08:14:00;;;;;;;15.65;14.10;;;;;;;17.60;96.88;101022.72;5069762;28;20145;-83
2022/09/10 08:16:28;;;;;;;14.93;13.50;;;;;;;17.62;96.35;101023.72;5069556;28;20052;-83
2022/09/10 08:19:01;;;;;;;15.23;12.90;;;;;;;17.70;95.95;101028.69;5052968;28;20056;-83
2022/09/10 08:21:30;;;;;;;14.27;12.73;;;;;;;17.79;95.71;101028.50;5069284;28;20050;-83
2022/09/10 08:23:58;;;;;;;14.15;12.48;;;;;;;17.81;93.42;101032.19;5054319;28;20046;-84
2022/09/10 08:26:28;;;;;;;15.57;12.38;;;;;;;17.84;92.99;101036.63;5069351;28;20084;-84
2022/09/10 08:28:58;;;;;;;12.90;11.70;;;;;;;17.90;93.82;101042.75;5061412;28;20120;-84
2022/09/10 08:31:26;;;;;;;12.85;11.45;;;;;;;17.78;91.69;101038.53;5078994;28;20091;-84
2022/09/10 08:34:04;;;;;;;12.73;11.10;;;;;;;17.77;93.50;101047.84;5078807;28;20054;-83
2022/09/10 08:36:33;;;;;;;14.55;11.70;;;;;;;17.79;92.22;101050.03;5060539;28;20540;-83
2022/09/10 08:39:00;;;;;;;11.75;10.55;;;;;;;17.85;92.30;101045.44;5060971;28;20525;-83
2022/09/10 08:41:45;;;;;;;12.07;9.80;;;;;;;17.90;92.33;101056.22;5060863;28;20081;-83
2022/09/10 08:44:33;;;;;;;13.18;10.07;;;;;;;17.99;92.93;101056.00;5069335;28;20054;-77
2022/09/10 08:47:20;;;;;;;18.40;12.57;;;;;;;18.09;93.22;101064.63;5052540;28;20587;-80
2022/09/10 08:49:59;;;;;;;13.25;11.95;;;;;;;18.10;92.93;101071.50;5069441;28;20052;-79
2022/09/10 08:52:40;;;;;;;14.23;11.50;;;;;;;18.08;92.93;101073.94;5057810;28;20103;-77
2022/09/10 08:55:17;;;;;;;14.23;12.80;;;;;;;18.12;92.94;101077.13;5089482;28;20049;-77
2022/09/10 08:57:46;;;;;;;12.55;10.90;;;;;;;18.15;91.75;101081.56;5089388;28;20052;-78
2022/09/10 09:00:20;;;;;;;9.38;8.43;;;;;;;18.15;91.58;101089.63;5089325;28;20055;-78
2022/09/10 09:03:03;;;;;;;9.85;8.95;;;;;;;18.18;91.66;101085.25;5088882;28;20056;-78
2022/09/10 09:05:54;;;;;;;12.75;11.05;;;;;;;18.15;91.51;101084.25;5071446;28;20096;-77
2022/09/10 09:08:31;;;;;;;13.15;11.95;;;;;;;18.13;92.31;101088.66;5073551;28;20037;-78
2022/09/10 09:11:05;;;;;;;13.63;12.23;;;;;;;18.08;92.69;101092.78;5089255;28;20076;-78
2022/09/10 09:13:53;;;;;;;13.25;12.02;;;;;;;18.05;92.06;101093.00;5088779;28;20486;-79
2022/09/10 09:16:32;;;;;;;14.60;13.32;;;;;;;18.00;92.58;101097.16;5088999;28;20069;-79
2022/09/10 09:19:30;;;;;;;14.25;12.90;;;;;;;18.00;92.71;101100.56;5073284;28;20045;-79
2022/09/10 09:22:10;;;;;;;13.38;12.02;;;;;;;18.05;93.25;101104.53;5088730;28;20136;-78
2022/09/10 09:24:56;;;;;;;13.45;11.98;;;;;;;18.09;92.43;101109.69;5088832;28;20049;-79
2022/09/10 09:27:28;;;;;;;14.02;12.70;;;;;;;18.11;92.21;101101.84;5071672;28;20059;-80
2022/09/10 09:30:06;;;;;;;13.55;11.93;;;;;;;18.17;91.12;101103.38;5073528;28;20096;-80
2022/09/10 09:32:41;;;;;;;14.70;11.98;;;;;;;18.25;91.40;101101.69;5088006;28;20045;-80
2022/09/10 09:35:24;;;;;;;13.73;12.35;;;;;;;18.32;91.86;101098.53;5087197;28;20808;-81
2022/09/10 09:38:19;;;;;;;17.30;12.70;;;;;;;18.38;90.77;101108.59;5088575;28;20140;-84
2022/09/10 09:40:48;;;;;;;13.05;11.85;;;;;;;18.46;90.04;101104.19;5073212;28;20041;-83
2022/09/10 09:43:41;;;;;;;12.65;11.52;;;;;;;18.58;89.88;101100.31;5088358;28;20053;-81
2022/09/10 09:46:15;;;;;;;13.35;11.27;;;;;;;18.71;90.11;101111.44;5088621;28;20504;-81
2022/09/10 09:48:45;;;;;;;13.13;11.82;;;;;;;18.79;88.14;101107.03;5087712;28;20528;-82
2022/09/10 09:51:19;;;;;;;11.38;10.35;;;;;;;19.05;88.79;101111.47;5088532;28;20070;-83
2022/09/10 09:53:48;;;;;;;11.70;10.68;;;;;;;19.27;88.33;101112.22;5073286;28;20053;-80
2022/09/10 09:56:41;;;;;;;11.40;10.20;;;;;;;19.32;87.82;101116.16;5072762;28;20095;-80
2022/09/10 09:59:27;;;;;;;12.40;10.65;;;;;;;19.35;86.78;101114.44;5073346;28;20142;-81
2022/09/10 10:01:59;;;;;;;11.15;10.15;;;;;;;19.47;85.79;101111.25;5071570;28;20154;-81
2022/09/10 10:04:30;;;;;;;10.07;9.15;;;;;;;19.40;83.35;101117.13;5071713;28;20073;-80
2022/09/10 10:06:58;;;;;;;9.75;8.82;;;;;;;19.35;83.58;101120.56;5073191;28;20067;-79
2022/09/10 10:09:31;;;;;;;12.25;9.80;;;;;;;19.26;84.62;101115.41;5071030;28;20059;-82
2022/09/10 10:12:03;;;;;;;10.43;9.52;;;;;;;19.25;84.24;101128.16;5073227;28;20040;-83
2022/09/10 10:14:29;;;;;;;12.70;9.05;;;;;;;19.31;84.16;101125.47;5071988;28;20067;-82
2022/09/10 10:16:59;;;;;;;10.15;9.25;;;;;;;19.36;84.03;101127.44;5072978;28;20076;-80
2022/09/10 10:19:37;;;;;;;9.55;8.48;;;;;;;19.43;83.93;101120.81;5072119;28;20049;-82
2022/09/10 10:22:12;;;;;;;10.30;9.38;;;;;;;19.52;83.44;101126.75;5072894;28;20045;-81
2022/09/10 10:24:41;;;;;;;17.00;10.05;;;;;;;19.79;83.58;101122.50;5071069;28;20689;-81
2022/09/10 10:27:25;;;;;;;8.85;8.15;;;;;;;20.26;81.34;101123.38;5072462;28;20129;-81
2022/09/10 10:30:08;;;;;;;8.63;7.63;;;;;;;20.56;80.29;101123.50;5072802;28;20125;-83
2022/09/10 10:32:46;;;;;;;8.75;7.85;;;;;;;20.86;77.27;101123.56;5072070;28;20413;-79
2022/09/10 10:35:24;;;;;;;6.65;6.00;;;;;;;20.77;75.15;101131.28;5072546;28;20494;-80
2022/09/10 10:38:12;;;;;;;6.13;5.50;;;;;;;20.40;76.70;101135.13;5071655;28;20493;-84
2022/09/10 10:40:55;;;;;;;8.65;3.83;;;;;;;20.06;76.10;101133.75;5072305;28;20084;-83
2022/09/10 10:43:38;;;;;;;3.58;3.38;;;;;;;19.89;76.95;101141.91;5072508;28;20041;-83
2022/09/10 10:46:20;;;;;;;5.35;3.35;;;;;;;19.91;76.26;101142.88;5072388;28;20482;-83
2022/09/10 10:49:05;;;;;;;3.05;2.85;;;;;;;19.93;76.59;101147.78;5072184;28;20050;-83
2022/09/10 10:51:55;;;;;;;5.53;4.40;;;;;;;19.94;77.71;101152.69;5072125;28;20136;-82
2022/09/10 10:54:59;;;;;;;4.70;4.40;;;;;;;19.98;78.58;101147.78;5072126;28;20132;-83
2022/09/10 10:57:38;;;;;;;5.05;4.65;;;;;;;20.04;76.91;101155.13;5072296;28;20045;-80
2022/09/10 11:00:11;;;;;;;5.97;5.40;;;;;;;20.01;77.93;101161.50;5072214;28;20041;-81
2022/09/10 11:02:53;;;;;;;6.07;4.45;;;;;;;20.12;76.47;101164.94;5071127;28;20128;-84
2022/09/10 11:05:29;;;;;;;5.80;4.35;;;;;;;20.26;76.82;101163.19;5072462;28;20041;-91
2022/09/10 11:08:05;;;;;;;4.03;3.70;;;;;;;20.48;76.61;101167.78;5072471;28;20048;-83
2022/09/10 11:10:39;;;;;;;6.03;4.07;;;;;;;20.66;75.20;101164.53;5071391;28;20041;-80
2022/09/10 11:13:10;;;;;;;3.25;3.05;;;;;;;21.00;73.41;101162.34;5072155;28;20049;-81
2022/09/10 11:15:42;;;;;;;3.13;2.93;;;;;;;21.09;73.19;101174.84;5071520;28;20382;-81
2022/09/10 11:18:30;;;;;;;3.20;2.90;;;;;;;21.05;72.49;101166.28;5071933;28;20053;-80
2022/09/10 11:21:10;;;;;;;3.15;2.85;;;;;;;20.88;73.81;101182.59;5072147;28;20041;-83
2022/09/10 11:23:46;;;;;;;2.80;2.60;;;;;;;20.63;71.94;101179.03;5071596;28;20045;-84
2022/09/10 11:26:16;;;;;;;6.82;2.90;;;;;;;20.44;73.04;101184.25;5072388;28;20049;-82
2022/09/10 11:28:58;;;;;;;2.73;2.50;;;;;;;20.41;73.61;101179.13;5075111;28;20124;-82
2022/09/10 11:31:53;;;;;;;3.10;2.80;;;;;;;20.37;73.43;101181.34;5074572;28;20284;-82
2022/09/10 11:34:24;;;;;;;3.97;2.80;;;;;;;20.31;73.63;101184.78;5065837;28;20079;-82